sensor_id;sensor_type;location;lat;lon;timestamp;pressure;altitude;pressure_sealevel;temperature;humidity
16595;BME280;8410;52.532;13.336;2024-03-08T00:00:11;101936.78;;;15.27;39.86
16595;BME280;8410;52.532;13.336;2024-03-08T00:02:42;101941.56;;;14.40;40.63
16595;BME280;8410;52.532;13.336;2024-03-08T00:05:10;101947.81;;;13.54;41.76
16595;BME280;8410;52.532;13.336;2024-03-08T00:07:38;101947.63;;;13.88;42.30
16595;BME280;8410;52.532;13.336;2024-03-08T00:10:07;101937.78;;;13.69;42.06
16595;BME280;8410;52.532;13.336;2024-03-08T00:12:38;101923.59;;;15.83;39.93
16595;BME280;8410;52.532;13.336;2024-03-08T00:15:10;101927.16;;;15.94;38.83
16595;BME280;8410;52.532;13.336;2024-03-08T00:17:40;101922.84;;;15.18;39.96
16595;BME280;8410;52.532;13.336;2024-03-08T00:20:08;101932.13;;;14.99;39.87
16595;BME280;8410;52.532;13.336;2024-03-08T00:22:37;101925.19;;;14.97;40.41
16595;BME280;8410;52.532;13.336;2024-03-08T00:25:06;101924.56;;;15.16;40.38
16595;BME280;8410;52.532;13.336;2024-03-08T00:27:35;101923.19;;;15.49;39.62
16595;BME280;8410;52.532;13.336;2024-03-08T00:30:04;101921.50;;;15.51;40.42
16595;BME280;8410;52.532;13.336;2024-03-08T00:32:33;101925.31;;;15.82;38.91
16595;BME280;8410;52.532;13.336;2024-03-08T00:35:01;101925.31;;;15.82;39.19
16595;BME280;8410;52.532;13.336;2024-03-08T00:37:28;101927.31;;;15.30;39.71
16595;BME280;8410;52.532;13.336;2024-03-08T00:39:56;101923.91;;;14.16;41.45
16595;BME280;8410;52.532;13.336;2024-03-08T00:42:24;101927.41;;;14.19;42.46
16595;BME280;8410;52.532;13.336;2024-03-08T00:44:51;101922.75;;;14.50;41.47
16595;BME280;8410;52.532;13.336;2024-03-08T00:47:19;101921.53;;;14.29;41.43
16595;BME280;8410;52.532;13.336;2024-03-08T00:49:48;101935.09;;;13.64;43.13
16595;BME280;8410;52.532;13.336;2024-03-08T00:52:15;101936.69;;;13.17;43.84
16595;BME280;8410;52.532;13.336;2024-03-08T00:54:45;101928.38;;;12.91;45.31
16595;BME280;8410;52.532;13.336;2024-03-08T00:57:12;101920.38;;;13.62;43.17
16595;BME280;8410;52.532;13.336;2024-03-08T00:59:40;101924.44;;;13.48;42.86
16595;BME280;8410;52.532;13.336;2024-03-08T01:02:08;101917.84;;;13.63;43.54
16595;BME280;8410;52.532;13.336;2024-03-08T01:04:35;101911.66;;;14.57;41.58
16595;BME280;8410;52.532;13.336;2024-03-08T01:07:04;101918.94;;;14.86;41.46
16595;BME280;8410;52.532;13.336;2024-03-08T01:09:32;101906.91;;;14.89;41.38
16595;BME280;8410;52.532;13.336;2024-03-08T01:12:00;101900.38;;;15.20;41.10
16595;BME280;8410;52.532;13.336;2024-03-08T01:14:27;101902.53;;;14.84;41.21
16595;BME280;8410;52.532;13.336;2024-03-08T01:16:56;101903.28;;;14.76;41.37
16595;BME280;8410;52.532;13.336;2024-03-08T01:19:24;101907.25;;;14.00;42.15
16595;BME280;8410;52.532;13.336;2024-03-08T01:21:51;101892.00;;;14.18;41.38
16595;BME280;8410;52.532;13.336;2024-03-08T01:24:20;101890.66;;;14.42;41.72
16595;BME280;8410;52.532;13.336;2024-03-08T01:26:48;101885.00;;;14.66;41.21
16595;BME280;8410;52.532;13.336;2024-03-08T01:29:15;101884.16;;;14.68;41.68
16595;BME280;8410;52.532;13.336;2024-03-08T01:31:43;101880.63;;;14.63;41.18
16595;BME280;8410;52.532;13.336;2024-03-08T01:34:10;101878.06;;;14.10;42.16
16595;BME280;8410;52.532;13.336;2024-03-08T01:36:38;101880.75;;;14.15;41.73
16595;BME280;8410;52.532;13.336;2024-03-08T01:39:06;101875.44;;;13.57;42.37
16595;BME280;8410;52.532;13.336;2024-03-08T01:41:36;101876.34;;;14.09;42.53
16595;BME280;8410;52.532;13.336;2024-03-08T01:44:04;101864.38;;;14.17;41.66
16595;BME280;8410;52.532;13.336;2024-03-08T01:46:34;101864.38;;;14.17;41.81
16595;BME280;8410;52.532;13.336;2024-03-08T01:49:02;101865.19;;;13.63;42.56
16595;BME280;8410;52.532;13.336;2024-03-08T01:51:30;101858.78;;;13.91;42.86
16595;BME280;8410;52.532;13.336;2024-03-08T01:54:00;101856.59;;;14.16;42.11
16595;BME280;8410;52.532;13.336;2024-03-08T01:56:30;101848.50;;;13.96;42.37
16595;BME280;8410;52.532;13.336;2024-03-08T01:59:00;101855.06;;;13.28;42.81
16595;BME280;8410;52.532;13.336;2024-03-08T02:01:28;101855.63;;;13.15;42.80
16595;BME280;8410;52.532;13.336;2024-03-08T02:03:55;101863.75;;;12.50;44.68
16595;BME280;8410;52.532;13.336;2024-03-08T02:06:23;101863.28;;;12.68;44.45
16595;BME280;8410;52.532;13.336;2024-03-08T02:08:51;101861.34;;;12.57;45.36
16595;BME280;8410;52.532;13.336;2024-03-08T02:11:19;101850.78;;;13.30;43.91
16595;BME280;8410;52.532;13.336;2024-03-08T02:13:47;101857.72;;;12.49;45.69
16595;BME280;8410;52.532;13.336;2024-03-08T02:16:21;101848.59;;;13.52;43.75
16595;BME280;8410;52.532;13.336;2024-03-08T02:18:49;101848.03;;;13.68;42.64
16595;BME280;8410;52.532;13.336;2024-03-08T02:21:18;101845.50;;;12.42;44.36
16595;BME280;8410;52.532;13.336;2024-03-08T02:23:46;101843.25;;;12.98;44.21
16595;BME280;8410;52.532;13.336;2024-03-08T02:26:13;101850.03;;;12.14;46.37
16595;BME280;8410;52.532;13.336;2024-03-08T02:28:41;101855.50;;;10.97;47.97
16595;BME280;8410;52.532;13.336;2024-03-08T02:31:10;101844.94;;;12.55;46.30
16595;BME280;8410;52.532;13.336;2024-03-08T02:33:38;101842.16;;;12.48;45.49
16595;BME280;8410;52.532;13.336;2024-03-08T02:36:06;101844.81;;;12.51;45.26
16595;BME280;8410;52.532;13.336;2024-03-08T02:38:35;101839.09;;;13.07;44.31
16595;BME280;8410;52.532;13.336;2024-03-08T02:41:04;101843.75;;;12.80;45.24
16595;BME280;8410;52.532;13.336;2024-03-08T02:43:32;101831.44;;;13.10;43.98
16595;BME280;8410;52.532;13.336;2024-03-08T02:46:00;101832.69;;;12.86;45.25
16595;BME280;8410;52.532;13.336;2024-03-08T02:48:27;101833.19;;;12.32;45.50
16595;BME280;8410;52.532;13.336;2024-03-08T02:50:55;101830.41;;;12.61;45.26
16595;BME280;8410;52.532;13.336;2024-03-08T02:53:23;101829.00;;;11.99;45.54
16595;BME280;8410;52.532;13.336;2024-03-08T02:55:52;101820.22;;;13.11;45.02
16595;BME280;8410;52.532;13.336;2024-03-08T02:58:21;101815.59;;;13.38;44.26
16595;BME280;8410;52.532;13.336;2024-03-08T03:00:49;101823.25;;;12.90;44.49
16595;BME280;8410;52.532;13.336;2024-03-08T03:03:17;101810.66;;;13.07;44.78
16595;BME280;8410;52.532;13.336;2024-03-08T03:05:44;101820.25;;;13.12;43.46
16595;BME280;8410;52.532;13.336;2024-03-08T03:08:15;101827.56;;;12.91;44.66
16595;BME280;8410;52.532;13.336;2024-03-08T03:10:43;101821.56;;;12.49;44.73
16595;BME280;8410;52.532;13.336;2024-03-08T03:13:12;101816.16;;;12.79;44.91
16595;BME280;8410;52.532;13.336;2024-03-08T03:15:40;101808.00;;;13.02;45.05
16595;BME280;8410;52.532;13.336;2024-03-08T03:18:08;101829.25;;;11.75;46.18
16595;BME280;8410;52.532;13.336;2024-03-08T03:20:36;101815.69;;;11.84;47.34
16595;BME280;8410;52.532;13.336;2024-03-08T03:23:08;101815.47;;;11.75;46.10
16595;BME280;8410;52.532;13.336;2024-03-08T03:25:35;101820.91;;;12.20;46.31
16595;BME280;8410;52.532;13.336;2024-03-08T03:28:05;101816.03;;;11.96;46.53
16595;BME280;8410;52.532;13.336;2024-03-08T03:30:35;101814.41;;;12.38;45.74
16595;BME280;8410;52.532;13.336;2024-03-08T03:33:04;101812.91;;;12.09;47.30
16595;BME280;8410;52.532;13.336;2024-03-08T03:35:34;101822.41;;;11.44;48.58
16595;BME280;8410;52.532;13.336;2024-03-08T03:38:03;101813.88;;;11.80;46.98
16595;BME280;8410;52.532;13.336;2024-03-08T03:40:35;101813.31;;;11.90;47.45
16595;BME280;8410;52.532;13.336;2024-03-08T03:43:03;101809.63;;;12.54;46.26
16595;BME280;8410;52.532;13.336;2024-03-08T03:45:31;101810.63;;;12.22;46.79
16595;BME280;8410;52.532;13.336;2024-03-08T03:48:04;101810.88;;;12.34;46.06
16595;BME280;8410;52.532;13.336;2024-03-08T03:50:33;101814.03;;;12.60;45.66
16595;BME280;8410;52.532;13.336;2024-03-08T03:53:03;101802.59;;;12.90;45.50
16595;BME280;8410;52.532;13.336;2024-03-08T03:55:31;101801.13;;;13.02;44.65
16595;BME280;8410;52.532;13.336;2024-03-08T03:57:59;101803.75;;;13.06;44.49
16595;BME280;8410;52.532;13.336;2024-03-08T04:00:27;101809.31;;;12.82;44.08
16595;BME280;8410;52.532;13.336;2024-03-08T04:02:55;101801.88;;;12.98;44.45
16595;BME280;8410;52.532;13.336;2024-03-08T04:05:27;101806.78;;;12.83;43.96
16595;BME280;8410;52.532;13.336;2024-03-08T04:07:55;101799.84;;;12.82;45.30
16595;BME280;8410;52.532;13.336;2024-03-08T04:10:23;101809.66;;;11.48;46.13
16595;BME280;8410;52.532;13.336;2024-03-08T04:12:51;101813.81;;;11.10;47.53
16595;BME280;8410;52.532;13.336;2024-03-08T04:15:19;101811.09;;;11.37;47.24
16595;BME280;8410;52.532;13.336;2024-03-08T04:17:47;101818.53;;;10.66;49.41
16595;BME280;8410;52.532;13.336;2024-03-08T04:20:15;101816.34;;;10.23;50.40
16595;BME280;8410;52.532;13.336;2024-03-08T04:22:45;101816.38;;;9.96;50.84
16595;BME280;8410;52.532;13.336;2024-03-08T04:25:14;101821.31;;;9.89;51.35
16595;BME280;8410;52.532;13.336;2024-03-08T04:27:42;101819.28;;;10.33;49.61
16595;BME280;8410;52.532;13.336;2024-03-08T04:30:11;101813.97;;;10.56;49.56
16595;BME280;8410;52.532;13.336;2024-03-08T04:32:39;101815.25;;;10.70;49.40
16595;BME280;8410;52.532;13.336;2024-03-08T04:35:08;101817.88;;;11.02;48.41
16595;BME280;8410;52.532;13.336;2024-03-08T04:37:35;101812.97;;;11.11;48.32
16595;BME280;8410;52.532;13.336;2024-03-08T04:40:06;101808.84;;;11.18;48.42
16595;BME280;8410;52.532;13.336;2024-03-08T04:42:34;101817.50;;;10.90;48.97
16595;BME280;8410;52.532;13.336;2024-03-08T04:45:02;101810.00;;;10.67;49.45
16595;BME280;8410;52.532;13.336;2024-03-08T04:47:30;101809.06;;;10.94;48.97
16595;BME280;8410;52.532;13.336;2024-03-08T04:49:58;101803.47;;;11.42;47.17
16595;BME280;8410;52.532;13.336;2024-03-08T04:52:26;101805.72;;;10.98;47.94
16595;BME280;8410;52.532;13.336;2024-03-08T04:54:54;101803.16;;;11.30;47.85
16595;BME280;8410;52.532;13.336;2024-03-08T04:57:23;101804.66;;;11.21;48.18
16595;BME280;8410;52.532;13.336;2024-03-08T04:59:52;101790.16;;;12.70;46.60
16595;BME280;8410;52.532;13.336;2024-03-08T05:02:19;101799.00;;;12.42;45.68
16595;BME280;8410;52.532;13.336;2024-03-08T05:04:49;101797.75;;;11.54;47.24
16595;BME280;8410;52.532;13.336;2024-03-08T05:07:17;101795.19;;;12.25;45.82
16595;BME280;8410;52.532;13.336;2024-03-08T05:09:45;101793.03;;;12.43;46.08
16595;BME280;8410;52.532;13.336;2024-03-08T05:12:17;101788.63;;;12.39;46.20
16595;BME280;8410;52.532;13.336;2024-03-08T05:14:46;101795.38;;;11.28;48.02
16595;BME280;8410;52.532;13.336;2024-03-08T05:17:16;101795.75;;;11.77;46.33
16595;BME280;8410;52.532;13.336;2024-03-08T05:19:43;101798.53;;;11.84;46.97
16595;BME280;8410;52.532;13.336;2024-03-08T05:22:11;101803.19;;;11.99;46.69
16595;BME280;8410;52.532;13.336;2024-03-08T05:24:39;101793.38;;;12.21;46.07
16595;BME280;8410;52.532;13.336;2024-03-08T05:27:07;101800.41;;;11.90;46.14
16595;BME280;8410;52.532;13.336;2024-03-08T05:29:34;101793.25;;;12.14;46.39
16595;BME280;8410;52.532;13.336;2024-03-08T05:32:04;101797.72;;;12.23;45.51
16595;BME280;8410;52.532;13.336;2024-03-08T05:34:31;101790.16;;;12.31;45.67
16595;BME280;8410;52.532;13.336;2024-03-08T05:36:58;101780.63;;;12.68;44.55
16595;BME280;8410;52.532;13.336;2024-03-08T05:39:26;101776.22;;;12.64;45.80
16595;BME280;8410;52.532;13.336;2024-03-08T05:41:54;101780.81;;;11.98;46.68
16595;BME280;8410;52.532;13.336;2024-03-08T05:44:22;101779.28;;;11.72;46.60
16595;BME280;8410;52.532;13.336;2024-03-08T05:46:50;101776.78;;;11.75;46.92
16595;BME280;8410;52.532;13.336;2024-03-08T05:49:19;101779.06;;;11.97;46.55
16595;BME280;8410;52.532;13.336;2024-03-08T05:51:47;101782.13;;;12.17;46.44
16595;BME280;8410;52.532;13.336;2024-03-08T05:54:15;101777.19;;;13.14;44.72
16595;BME280;8410;52.532;13.336;2024-03-08T05:56:46;101766.69;;;13.05;44.34
16595;BME280;8410;52.532;13.336;2024-03-08T05:59:14;101776.50;;;12.77;45.50
16595;BME280;8410;52.532;13.336;2024-03-08T06:01:42;101783.56;;;12.45;45.97
16595;BME280;8410;52.532;13.336;2024-03-08T06:04:09;101780.34;;;12.98;44.92
16595;BME280;8410;52.532;13.336;2024-03-08T06:06:40;101787.59;;;11.60;47.54
16595;BME280;8410;52.532;13.336;2024-03-08T06:09:08;101785.50;;;12.55;46.20
16595;BME280;8410;52.532;13.336;2024-03-08T06:11:41;101783.44;;;13.25;45.08
16595;BME280;8410;52.532;13.336;2024-03-08T06:14:09;101782.22;;;13.07;44.49
16595;BME280;8410;52.532;13.336;2024-03-08T06:16:37;101798.03;;;11.64;46.21
16595;BME280;8410;52.532;13.336;2024-03-08T06:19:05;101794.66;;;12.40;47.45
16595;BME280;8410;52.532;13.336;2024-03-08T06:21:32;101791.31;;;11.38;49.16
16595;BME280;8410;52.532;13.336;2024-03-08T06:24:01;101790.22;;;12.34;46.66
16595;BME280;8410;52.532;13.336;2024-03-08T06:26:29;101785.34;;;12.90;45.49
16595;BME280;8410;52.532;13.336;2024-03-08T06:28:59;101793.56;;;11.92;46.01
16595;BME280;8410;52.532;13.336;2024-03-08T06:31:26;101794.19;;;11.15;48.47
16595;BME280;8410;52.532;13.336;2024-03-08T06:33:54;101798.69;;;11.24;49.05
16595;BME280;8410;52.532;13.336;2024-03-08T06:36:23;101790.16;;;12.70;46.46
16595;BME280;8410;52.532;13.336;2024-03-08T06:38:51;101785.91;;;13.18;45.65
16595;BME280;8410;52.532;13.336;2024-03-08T06:41:20;101783.97;;;13.55;44.24
16595;BME280;8410;52.532;13.336;2024-03-08T06:43:48;101796.69;;;12.15;45.86
16595;BME280;8410;52.532;13.336;2024-03-08T06:46:18;101792.44;;;12.17;46.87
16595;BME280;8410;52.532;13.336;2024-03-08T06:48:47;101775.47;;;13.15;45.61
16595;BME280;8410;52.532;13.336;2024-03-08T06:51:16;101780.66;;;13.62;44.35
16595;BME280;8410;52.532;13.336;2024-03-08T06:53:44;101776.50;;;13.23;45.04
16595;BME280;8410;52.532;13.336;2024-03-08T06:56:11;101784.97;;;13.61;43.28
16595;BME280;8410;52.532;13.336;2024-03-08T06:58:40;101778.38;;;13.82;43.82
16595;BME280;8410;52.532;13.336;2024-03-08T07:01:08;101780.16;;;13.33;43.54
16595;BME280;8410;52.532;13.336;2024-03-08T07:03:41;101784.31;;;13.76;43.54
16595;BME280;8410;52.532;13.336;2024-03-08T07:06:10;101787.91;;;13.33;44.42
16595;BME280;8410;52.532;13.336;2024-03-08T07:08:38;101782.28;;;13.57;44.63
16595;BME280;8410;52.532;13.336;2024-03-08T07:11:06;101787.41;;;12.23;45.45
16595;BME280;8410;52.532;13.336;2024-03-08T07:13:34;101780.53;;;13.09;44.80
16595;BME280;8410;52.532;13.336;2024-03-08T07:16:03;101782.19;;;13.51;43.48
16595;BME280;8410;52.532;13.336;2024-03-08T07:18:30;101775.22;;;14.00;44.34
16595;BME280;8410;52.532;13.336;2024-03-08T07:20:58;101772.72;;;13.51;44.44
16595;BME280;8410;52.532;13.336;2024-03-08T07:23:26;101771.75;;;13.46;43.45
16595;BME280;8410;52.532;13.336;2024-03-08T07:26:14;101770.41;;;13.68;44.25
16595;BME280;8410;52.532;13.336;2024-03-08T07:28:42;101774.91;;;13.28;44.33
16595;BME280;8410;52.532;13.336;2024-03-08T07:31:11;101775.69;;;13.25;44.58
16595;BME280;8410;52.532;13.336;2024-03-08T07:33:47;101767.59;;;13.54;44.15
16595;BME280;8410;52.532;13.336;2024-03-08T07:36:17;101767.69;;;13.12;44.88
16595;BME280;8410;52.532;13.336;2024-03-08T07:38:44;101762.91;;;12.86;45.26
16595;BME280;8410;52.532;13.336;2024-03-08T07:41:14;101770.44;;;12.34;45.84
16595;BME280;8410;52.532;13.336;2024-03-08T07:43:42;101761.03;;;12.79;45.37
16595;BME280;8410;52.532;13.336;2024-03-08T07:46:11;101783.22;;;11.57;48.34
16595;BME280;8410;52.532;13.336;2024-03-08T07:48:39;101755.81;;;12.76;45.12
16595;BME280;8410;52.532;13.336;2024-03-08T07:51:07;101758.72;;;13.95;43.43
16595;BME280;8410;52.532;13.336;2024-03-08T07:53:36;101755.69;;;13.65;43.96
16595;BME280;8410;52.532;13.336;2024-03-08T07:56:05;101755.00;;;12.80;46.35
16595;BME280;8410;52.532;13.336;2024-03-08T07:58:32;101750.38;;;13.56;43.76
16595;BME280;8410;52.532;13.336;2024-03-08T08:01:01;101755.44;;;12.57;44.76
16595;BME280;8410;52.532;13.336;2024-03-08T08:03:30;101764.28;;;11.90;45.47
16595;BME280;8410;52.532;13.336;2024-03-08T08:05:58;101753.94;;;12.28;45.63
16595;BME280;8410;52.532;13.336;2024-03-08T08:08:25;101758.03;;;11.12;47.87
16595;BME280;8410;52.532;13.336;2024-03-08T08:10:53;101749.69;;;11.22;47.92
16595;BME280;8410;52.532;13.336;2024-03-08T08:13:21;101746.91;;;12.21;45.49
16595;BME280;8410;52.532;13.336;2024-03-08T08:15:49;101739.09;;;13.04;44.92
16595;BME280;8410;52.532;13.336;2024-03-08T08:18:17;101729.69;;;14.14;43.03
16595;BME280;8410;52.532;13.336;2024-03-08T08:20:49;101727.63;;;13.92;42.89
16595;BME280;8410;52.532;13.336;2024-03-08T08:23:16;101726.28;;;14.18;41.63
16595;BME280;8410;52.532;13.336;2024-03-08T08:25:45;101744.34;;;11.84;45.93
16595;BME280;8410;52.532;13.336;2024-03-08T08:28:15;101734.13;;;13.65;44.33
16595;BME280;8410;52.532;13.336;2024-03-08T08:30:44;101728.22;;;13.74;43.72
16595;BME280;8410;52.532;13.336;2024-03-08T08:33:11;101729.91;;;13.20;43.24
16595;BME280;8410;52.532;13.336;2024-03-08T08:35:39;101732.56;;;13.24;43.19
16595;BME280;8410;52.532;13.336;2024-03-08T08:38:08;101727.19;;;13.61;42.38
16595;BME280;8410;52.532;13.336;2024-03-08T08:40:36;101732.00;;;12.48;42.95
16595;BME280;8410;52.532;13.336;2024-03-08T08:43:05;101723.78;;;12.69;43.87
16595;BME280;8410;52.532;13.336;2024-03-08T08:45:33;101721.88;;;14.12;42.03
16595;BME280;8410;52.532;13.336;2024-03-08T08:48:01;101708.34;;;15.11;40.58
16595;BME280;8410;52.532;13.336;2024-03-08T08:50:29;101707.38;;;14.25;40.93
16595;BME280;8410;52.532;13.336;2024-03-08T08:52:57;101723.91;;;12.31;44.58
16595;BME280;8410;52.532;13.336;2024-03-08T08:55:26;101710.56;;;13.46;42.82
16595;BME280;8410;52.532;13.336;2024-03-08T08:57:54;101700.66;;;14.40;41.21
16595;BME280;8410;52.532;13.336;2024-03-08T09:00:22;101703.00;;;13.09;42.52
16595;BME280;8410;52.532;13.336;2024-03-08T09:02:54;101694.69;;;12.78;42.78
16595;BME280;8410;52.532;13.336;2024-03-08T09:05:24;101686.34;;;14.72;40.89
16595;BME280;8410;52.532;13.336;2024-03-08T09:07:52;101693.28;;;14.75;40.87
16595;BME280;8410;52.532;13.336;2024-03-08T09:10:20;101694.19;;;14.08;40.95
16595;BME280;8410;52.532;13.336;2024-03-08T09:12:49;101699.91;;;12.81;42.40
16595;BME280;8410;52.532;13.336;2024-03-08T09:15:17;101691.88;;;13.13;44.00
16595;BME280;8410;52.532;13.336;2024-03-08T09:17:47;101679.06;;;14.39;41.14
16595;BME280;8410;52.532;13.336;2024-03-08T09:20:15;101681.63;;;13.74;42.21
16595;BME280;8410;52.532;13.336;2024-03-08T09:22:44;101681.75;;;14.48;40.42
16595;BME280;8410;52.532;13.336;2024-03-08T09:25:13;101673.81;;;14.33;41.37
16595;BME280;8410;52.532;13.336;2024-03-08T09:27:42;101674.34;;;14.79;40.06
16595;BME280;8410;52.532;13.336;2024-03-08T09:30:14;101670.19;;;14.22;39.77
16595;BME280;8410;52.532;13.336;2024-03-08T09:32:43;101679.78;;;13.12;42.07
16595;BME280;8410;52.532;13.336;2024-03-08T09:35:11;101670.53;;;13.79;42.65
16595;BME280;8410;52.532;13.336;2024-03-08T09:37:41;101667.69;;;13.62;40.70
16595;BME280;8410;52.532;13.336;2024-03-08T09:40:10;101664.88;;;13.49;41.98
16595;BME280;8410;52.532;13.336;2024-03-08T09:42:41;101668.16;;;13.37;42.32
16595;BME280;8410;52.532;13.336;2024-03-08T09:45:10;101672.91;;;13.14;44.16
16595;BME280;8410;52.532;13.336;2024-03-08T09:47:41;101661.16;;;13.89;41.50
16595;BME280;8410;52.532;13.336;2024-03-08T09:50:09;101673.34;;;13.38;41.75
16595;BME280;8410;52.532;13.336;2024-03-08T09:52:39;101653.84;;;14.26;41.63
16595;BME280;8410;52.532;13.336;2024-03-08T09:55:07;101652.91;;;14.19;40.47
16595;BME280;8410;52.532;13.336;2024-03-08T09:57:36;101646.81;;;14.92;40.45
16595;BME280;8410;52.532;13.336;2024-03-08T10:00:05;101637.75;;;15.49;38.99
16595;BME280;8410;52.532;13.336;2024-03-08T10:02:46;101640.22;;;15.34;38.18
16595;BME280;8410;52.532;13.336;2024-03-08T10:05:14;101644.13;;;14.06;40.99
16595;BME280;8410;52.532;13.336;2024-03-08T10:07:42;101643.09;;;13.94;40.60
16595;BME280;8410;52.532;13.336;2024-03-08T10:10:09;101640.66;;;14.06;40.38
16595;BME280;8410;52.532;13.336;2024-03-08T10:12:38;101643.72;;;13.76;40.62
16595;BME280;8410;52.532;13.336;2024-03-08T10:15:07;101646.94;;;13.59;41.05
16595;BME280;8410;52.532;13.336;2024-03-08T10:17:35;101645.75;;;13.37;41.51
16595;BME280;8410;52.532;13.336;2024-03-08T10:20:13;101640.00;;;15.06;40.33
16595;BME280;8410;52.532;13.336;2024-03-08T10:22:42;101616.28;;;15.70;38.34
16595;BME280;8410;52.532;13.336;2024-03-08T10:25:23;101630.50;;;13.56;40.32
16595;BME280;8410;52.532;13.336;2024-03-08T10:27:51;101626.00;;;14.86;39.83
16595;BME280;8410;52.532;13.336;2024-03-08T10:30:19;101626.00;;;14.86;39.62
16595;BME280;8410;52.532;13.336;2024-03-08T10:32:48;101616.56;;;14.94;38.90
16595;BME280;8410;52.532;13.336;2024-03-08T10:35:17;101603.91;;;15.35;38.38
16595;BME280;8410;52.532;13.336;2024-03-08T10:37:48;101612.94;;;13.97;40.35
16595;BME280;8410;52.532;13.336;2024-03-08T10:40:25;101604.94;;;14.52;39.55
16595;BME280;8410;52.532;13.336;2024-03-08T10:42:55;101601.31;;;14.38;39.42
16595;BME280;8410;52.532;13.336;2024-03-08T10:45:30;101603.59;;;14.89;38.64
16595;BME280;8410;52.532;13.336;2024-03-08T10:48:25;101596.97;;;14.33;39.07
16595;BME280;8410;52.532;13.336;2024-03-08T10:51:04;101590.03;;;15.29;38.10
16595;BME280;8410;52.532;13.336;2024-03-08T10:53:33;101577.25;;;15.62;37.89
16595;BME280;8410;52.532;13.336;2024-03-08T10:56:04;101597.59;;;14.12;38.98
16595;BME280;8410;52.532;13.336;2024-03-08T10:58:34;101593.72;;;14.51;38.45
16595;BME280;8410;52.532;13.336;2024-03-08T11:01:03;101580.56;;;15.34;37.76
16595;BME280;8410;52.532;13.336;2024-03-08T11:03:46;101578.78;;;15.24;37.47
16595;BME280;8410;52.532;13.336;2024-03-08T11:06:17;101562.63;;;15.77;37.40
16595;BME280;8410;52.532;13.336;2024-03-08T11:08:49;101559.38;;;16.64;36.03
16595;BME280;8410;52.532;13.336;2024-03-08T11:11:25;101560.16;;;16.14;36.53
16595;BME280;8410;52.532;13.336;2024-03-08T11:14:01;101557.97;;;15.20;36.68
16595;BME280;8410;52.532;13.336;2024-03-08T11:16:38;101563.88;;;14.95;37.49
16595;BME280;8410;52.532;13.336;2024-03-08T11:19:23;101558.31;;;14.53;37.31
16595;BME280;8410;52.532;13.336;2024-03-08T11:22:00;101562.03;;;14.82;36.93
16595;BME280;8410;52.532;13.336;2024-03-08T11:24:37;101544.19;;;15.21;36.70
16595;BME280;8410;52.532;13.336;2024-03-08T11:27:06;101535.63;;;15.41;36.57
16595;BME280;8410;52.532;13.336;2024-03-08T11:29:36;101529.88;;;16.16;35.46
16595;BME280;8410;52.532;13.336;2024-03-08T11:32:10;101517.63;;;17.59;34.29
16595;BME280;8410;52.532;13.336;2024-03-08T11:34:40;101528.91;;;15.75;35.81
16595;BME280;8410;52.532;13.336;2024-03-08T11:37:14;101529.31;;;14.97;36.29
16595;BME280;8410;52.532;13.336;2024-03-08T11:39:46;101532.81;;;14.99;36.23
16595;BME280;8410;52.532;13.336;2024-03-08T11:42:14;101519.38;;;15.76;35.16
16595;BME280;8410;52.532;13.336;2024-03-08T11:44:43;101508.25;;;16.50;34.33
16595;BME280;8410;52.532;13.336;2024-03-08T11:47:11;101499.03;;;18.26;32.98
16595;BME280;8410;52.532;13.336;2024-03-08T11:49:39;101498.59;;;17.45;33.42
16595;BME280;8410;52.532;13.336;2024-03-08T11:52:10;101505.50;;;15.71;33.89
16595;BME280;8410;52.532;13.336;2024-03-08T11:54:41;101505.31;;;15.32;35.20
16595;BME280;8410;52.532;13.336;2024-03-08T11:57:09;101500.41;;;15.97;34.85
16595;BME280;8410;52.532;13.336;2024-03-08T11:59:37;101485.41;;;17.84;33.46
16595;BME280;8410;52.532;13.336;2024-03-08T12:02:06;101485.69;;;17.05;33.44
16595;BME280;8410;52.532;13.336;2024-03-08T12:04:36;101491.78;;;16.31;34.42
16595;BME280;8410;52.532;13.336;2024-03-08T12:07:04;101501.03;;;15.39;35.83
16595;BME280;8410;52.532;13.336;2024-03-08T12:09:36;101488.09;;;15.48;36.27
16595;BME280;8410;52.532;13.336;2024-03-08T12:12:06;101478.81;;;16.79;34.29
16595;BME280;8410;52.532;13.336;2024-03-08T12:14:35;101475.34;;;16.77;34.75
16595;BME280;8410;52.532;13.336;2024-03-08T12:17:03;101481.34;;;15.98;34.88
16595;BME280;8410;52.532;13.336;2024-03-08T12:19:31;101485.50;;;15.48;36.29
16595;BME280;8410;52.532;13.336;2024-03-08T12:22:07;101476.16;;;17.02;34.36
16595;BME280;8410;52.532;13.336;2024-03-08T12:24:35;101473.38;;;15.47;36.35
16595;BME280;8410;52.532;13.336;2024-03-08T12:27:19;101464.06;;;16.81;34.66
16595;BME280;8410;52.532;13.336;2024-03-08T12:29:46;101456.25;;;16.96;35.12
16595;BME280;8410;52.532;13.336;2024-03-08T12:32:15;101465.81;;;16.71;35.51
16595;BME280;8410;52.532;13.336;2024-03-08T12:34:43;101461.34;;;15.61;36.12
16595;BME280;8410;52.532;13.336;2024-03-08T12:37:12;101456.28;;;16.04;35.92
16595;BME280;8410;52.532;13.336;2024-03-08T12:39:40;101451.56;;;15.04;36.30
16595;BME280;8410;52.532;13.336;2024-03-08T12:42:12;101448.47;;;15.94;35.80
16595;BME280;8410;52.532;13.336;2024-03-08T12:44:41;101448.47;;;16.49;35.23
16595;BME280;8410;52.532;13.336;2024-03-08T12:47:09;101443.28;;;16.43;35.63
16595;BME280;8410;52.532;13.336;2024-03-08T12:49:37;101446.53;;;17.40;34.62
16595;BME280;8410;52.532;13.336;2024-03-08T12:52:10;101443.28;;;16.14;34.76
16595;BME280;8410;52.532;13.336;2024-03-08T12:54:38;101438.97;;;16.40;34.36
16595;BME280;8410;52.532;13.336;2024-03-08T12:57:05;101430.28;;;16.17;34.81
16595;BME280;8410;52.532;13.336;2024-03-08T12:59:34;101434.50;;;15.61;36.33